createdAt,value
2019-04-21T00:04:42.929Z,58.20
2019-04-21T00:09:58.391Z,59.10
2019-04-21T00:14:56.817Z,60.50
2019-04-21T00:20:05.501Z,60.60
2019-04-21T00:25:18.103Z,61.90
2019-04-21T00:30:33.013Z,60.60
2019-04-21T00:35:22.251Z,60.20
2019-04-21T00:40:50.573Z,60.20
2019-04-21T00:45:41.817Z,60.00
2019-04-21T00:51:16.914Z,59.80
2019-04-21T00:56:08.954Z,60.50
2019-04-21T01:01:16.227Z,60.70
2019-04-21T01:06:23.047Z,60.30
2019-04-21T01:11:32.033Z,60.30
2019-04-21T01:16:39.781Z,60.80
2019-04-21T01:21:22.484Z,60.60
2019-04-21T01:26:39.355Z,61.50
2019-04-21T01:31:48.470Z,62.30
2019-04-21T01:36:58.858Z,62.40
2019-04-21T01:42:09.495Z,62.80
2019-04-21T01:47:13.968Z,64.00
2019-04-21T01:52:31.804Z,63.80
2019-04-21T01:57:42.522Z,64.10
2019-04-21T02:03:03.883Z,64.80
2019-04-21T02:08:01.110Z,65.50
2019-04-21T02:13:09.154Z,66.10
2019-04-21T02:18:17.060Z,67.10
2019-04-21T02:28:36.750Z,69.00
2019-04-21T02:49:17.211Z,69.80
2019-04-21T02:59:42.250Z,69.20
2019-04-21T03:05:09.298Z,69.00
2019-04-21T03:09:49.802Z,68.00
2019-04-21T03:15:04.328Z,68.00
2019-04-21T03:20:14.696Z,67.60
2019-04-21T03:25:25.373Z,67.80
2019-04-21T03:36:02.289Z,68.20
2019-04-21T03:40:32.151Z,68.70
2019-04-21T03:51:09.430Z,69.00
2019-04-21T04:01:29.624Z,69.40
2019-04-21T04:06:58.780Z,69.90
2019-04-21T04:22:15.373Z,71.00
2019-04-21T04:27:35.286Z,71.60
2019-04-21T04:48:01.919Z,74.70
2019-04-21T04:52:56.912Z,75.50
2019-04-21T04:58:11.107Z,75.10
2019-04-21T05:03:26.323Z,74.80
2019-04-21T05:08:33.813Z,74.60
2019-04-21T05:13:33.948Z,73.40
2019-04-21T05:18:48.929Z,73.60
2019-04-21T05:23:38.823Z,72.70
2019-04-21T05:28:37.002Z,71.60
2019-04-21T05:34:00.091Z,70.10
2019-04-21T05:39:10.628Z,69.90
2019-04-21T05:44:31.191Z,69.70
2019-04-21T05:49:36.755Z,69.70
2019-04-21T05:54:52.992Z,68.90
2019-04-21T05:59:49.151Z,69.50
2019-04-21T06:10:07.160Z,66.20
2019-04-21T06:15:16.662Z,66.50
2019-04-21T06:20:20.938Z,66.30
2019-04-21T06:30:43.890Z,69.50
2019-04-21T06:36:28.055Z,69.90
2019-04-21T06:41:13.589Z,69.20
2019-04-21T06:46:21.412Z,65.70
2019-04-21T06:56:38.086Z,65.00
2019-04-21T07:01:43.619Z,59.60
2019-04-21T07:11:49.116Z,57.60
2019-04-21T07:22:03.147Z,54.00
2019-04-21T07:27:17.492Z,52.70
2019-04-21T07:32:22.260Z,52.20
2019-04-21T07:37:30.530Z,51.00
2019-04-21T07:42:33.990Z,47.50
2019-04-21T07:47:53.495Z,45.50
2019-04-21T07:53:08.491Z,46.90
2019-04-21T07:58:13.157Z,45.90
2019-04-21T08:03:25.034Z,49.90
2019-04-21T08:08:20.798Z,51.20
2019-04-21T08:13:48.711Z,45.20
2019-04-21T08:18:40.018Z,46.00
2019-04-21T08:23:41.552Z,46.20
2019-04-21T08:28:53.734Z,48.30
2019-04-21T08:34:00.742Z,46.60
2019-04-21T08:39:07.239Z,43.00
2019-04-21T08:44:20.624Z,43.90
2019-04-21T08:49:20.580Z,42.50
2019-04-21T08:54:26.428Z,38.00
2019-04-21T09:00:13.341Z,39.10
2019-04-21T09:05:17.663Z,37.80
2019-04-21T09:10:31.186Z,37.20
2019-04-21T09:15:34.979Z,38.70
2019-04-21T09:25:57.429Z,34.50
2019-04-21T09:30:48.791Z,35.20
2019-04-21T09:36:01.037Z,33.70
2019-04-21T09:41:06.745Z,33.20
2019-04-21T09:46:11.831Z,32.00
2019-04-21T09:51:20.696Z,30.00
2019-04-21T09:56:36.016Z,30.50
2019-04-21T10:01:50.107Z,30.30
2019-04-21T10:06:43.135Z,30.10
2019-04-21T10:11:50.456Z,28.80
2019-04-21T10:17:15.102Z,29.40
2019-04-21T10:22:21.149Z,27.80
2019-04-21T10:27:27.304Z,27.40
2019-04-21T10:32:34.389Z,28.10
2019-04-21T10:37:57.628Z,26.10
2019-04-21T10:42:54.384Z,26.70
2019-04-21T10:48:03.040Z,26.20
2019-04-21T10:53:20.738Z,27.10
2019-04-21T10:58:40.899Z,25.20
2019-04-21T11:03:58.499Z,22.70
2019-04-21T11:09:08.810Z,23.90
2019-04-21T11:14:15.676Z,23.70
2019-04-21T11:19:28.502Z,24.60
2019-04-21T11:24:36.872Z,24.70
2019-04-21T11:29:44.684Z,24.00
2019-04-21T11:34:51.494Z,23.90
2019-04-21T11:40:03.316Z,23.90
2019-04-21T11:45:08.376Z,24.00
2019-04-21T11:50:19.012Z,22.80
2019-04-21T11:55:28.321Z,23.60
2019-04-21T12:00:35.855Z,22.70
2019-04-21T12:05:46.221Z,23.20
2019-04-21T12:10:57.605Z,22.60
2019-04-21T12:16:08.641Z,21.90
2019-04-21T12:21:15.705Z,23.40
2019-04-21T12:26:22.674Z,23.80
2019-04-21T12:32:05.789Z,23.90
2019-04-21T12:37:11.160Z,25.10
2019-04-21T12:42:16.620Z,24.60
2019-04-21T12:47:22.163Z,25.30
2019-04-21T12:52:27.512Z,25.10
2019-04-21T12:57:33.320Z,25.50
2019-04-21T13:02:39.703Z,27.50
2019-04-21T13:07:45.731Z,26.90
2019-04-21T13:12:52.141Z,27.40
2019-04-21T13:17:58.489Z,28.40
2019-04-21T13:23:04.045Z,27.60
2019-04-21T13:28:10.464Z,28.20
2019-04-21T13:33:15.901Z,27.00
2019-04-21T13:38:32.508Z,29.30
2019-04-21T13:43:29.350Z,27.20
2019-04-21T13:48:36.763Z,29.20
2019-04-21T13:53:42.244Z,26.40
2019-04-21T13:58:48.354Z,25.70
2019-04-21T14:03:53.838Z,26.50
2019-04-21T14:08:59.179Z,26.30
2019-04-21T14:14:04.476Z,26.20
2019-04-21T14:19:09.811Z,26.50
2019-04-21T14:24:15.172Z,26.50
2019-04-21T14:29:21.743Z,26.80
2019-04-21T14:34:28.120Z,27.40
2019-04-21T14:39:35.658Z,28.30
2019-04-21T14:44:42.849Z,26.50
2019-04-21T14:50:24.439Z,26.70
2019-04-21T14:55:31.178Z,27.90
2019-04-21T15:01:00.306Z,26.90
2019-04-21T15:06:05.695Z,27.60
2019-04-21T15:11:11.734Z,27.60
2019-04-21T15:16:18.706Z,29.00
2019-04-21T15:21:25.673Z,27.20
2019-04-21T15:26:32.397Z,28.40
2019-04-21T15:31:41.712Z,27.90
2019-04-21T15:36:46.224Z,28.70
2019-04-21T15:41:52.488Z,27.50
2019-04-21T15:46:57.995Z,27.40
2019-04-21T15:52:04.195Z,28.40
2019-04-21T15:57:14.465Z,28.40
2019-04-21T16:02:42.388Z,27.50
2019-04-21T16:07:47.998Z,27.60
2019-04-21T16:12:53.849Z,29.90
2019-04-21T16:18:01.474Z,28.30
2019-04-21T16:23:08.455Z,28.40
2019-04-21T16:28:15.350Z,27.80
2019-04-21T16:33:21.038Z,28.40
2019-04-21T16:38:26.496Z,28.40
2019-04-21T16:43:33.278Z,29.70
2019-04-21T16:48:39.869Z,28.10
2019-04-21T16:53:59.791Z,28.80
2019-04-21T16:59:10.570Z,29.60
2019-04-21T17:04:16.071Z,30.20
2019-04-21T17:09:22.906Z,29.80
2019-04-21T17:14:48.277Z,30.00
2019-04-21T17:19:43.002Z,30.40
2019-04-21T17:24:42.497Z,31.70
2019-04-21T17:29:48.686Z,32.90
2019-04-21T17:34:54.151Z,34.60
2019-04-21T17:40:02.292Z,34.60
2019-04-21T17:45:06.942Z,35.70
2019-04-21T17:50:31.645Z,37.00
2019-04-21T17:55:40.617Z,37.60
2019-04-21T18:01:12.911Z,38.10
2019-04-21T18:06:06.340Z,38.20
2019-04-21T18:11:10.346Z,38.10
2019-04-21T18:16:20.759Z,37.70
2019-04-21T18:21:23.145Z,37.00
2019-04-21T18:26:40.499Z,37.80
2019-04-21T18:31:47.051Z,38.30
2019-04-21T18:36:57.194Z,39.20
2019-04-21T18:42:47.813Z,39.10
2019-04-21T18:48:10.916Z,39.50
2019-04-21T18:53:19.399Z,39.40
2019-04-21T18:58:18.110Z,40.20
2019-04-21T19:03:29.256Z,40.60
2019-04-21T19:08:53.659Z,40.90
2019-04-21T19:14:36.160Z,41.40
2019-04-21T19:30:03.547Z,43.70
2019-04-21T19:34:41.316Z,46.00
2019-04-21T19:40:00.445Z,47.10
2019-04-21T19:45:11.731Z,47.60
2019-04-21T19:50:23.094Z,48.40
2019-04-21T19:55:09.867Z,49.80
2019-04-21T20:00:19.301Z,50.60
2019-04-21T20:05:36.083Z,50.70
2019-04-21T20:10:55.324Z,51.40
2019-04-21T20:16:01.410Z,51.70
2019-04-21T20:20:50.221Z,51.30
2019-04-21T20:26:02.262Z,52.30
2019-04-21T20:31:18.885Z,52.70
2019-04-21T20:36:31.368Z,53.60
2019-04-21T20:41:32.452Z,54.30
2019-04-21T20:46:42.658Z,54.20
2019-04-21T20:51:58.187Z,54.90
2019-04-21T20:56:57.563Z,55.30
2019-04-21T21:02:05.545Z,56.20
2019-04-21T21:07:20.867Z,56.40
2019-04-21T21:12:27.715Z,56.80
2019-04-21T21:17:39.227Z,56.90
2019-04-21T21:22:33.069Z,57.50
2019-04-21T21:27:39.637Z,57.90
2019-04-21T21:32:52.417Z,58.20
2019-04-21T21:37:54.987Z,58.20
2019-04-21T21:42:47.304Z,58.40
2019-04-21T21:48:11.427Z,58.30
2019-04-21T21:53:07.746Z,59.70
2019-04-21T21:58:10.430Z,59.60
2019-04-21T22:03:24.475Z,59.60
2019-04-21T22:08:24.788Z,60.90
2019-04-21T22:13:37.562Z,60.70
2019-04-21T22:19:03.219Z,60.50
2019-04-21T22:23:54.803Z,60.20
2019-04-21T22:28:51.809Z,60.70
2019-04-21T22:34:02.128Z,61.10
2019-04-21T22:39:25.304Z,62.30
2019-04-21T22:44:20.554Z,63.50
2019-04-21T22:49:26.775Z,63.00
2019-04-21T22:54:37.297Z,64.20
2019-04-21T22:59:40.548Z,64.70
2019-04-21T23:04:50.902Z,65.10
2019-04-21T23:09:53.525Z,65.80
2019-04-21T23:15:06.271Z,66.60
2019-04-21T23:20:27.842Z,66.80
2019-04-21T23:25:32.181Z,66.90
2019-04-21T23:30:45.805Z,66.90
2019-04-21T23:35:35.276Z,67.10
2019-04-21T23:40:40.734Z,67.70
2019-04-21T23:45:46.914Z,68.00
2019-04-21T23:51:03.377Z,68.70
2019-04-21T23:55:59.226Z,70.20
